Terminal Aerodrome Forecast
Issued by NWS

Home | Current Version | Previous Version | Text Only | Print | Product List | Glossary On
Versions: 1 2 3 4 5 6 7 8 9 10 11 12 13 14
000
FTUS43 KSGF 231100
TAFBBG
TAF
KBBG 231120Z 2312/2412 13005KT P6SM SCT050
     FM231400 VRB04KT P6SM BKN060 BKN120
     FM240900 VRB03KT P6SM FEW250=

USA.gov is the U.S. government's official web portal to all federal, state and local government web resources and services.